createdAt,value
2018-07-16T00:01:37.924Z,7.10
2018-07-16T00:04:06.854Z,7.20
2018-07-16T00:06:35.330Z,7.50
2018-07-16T00:09:04.309Z,7.47
2018-07-16T00:11:32.852Z,8.33
2018-07-16T00:14:01.321Z,8.43
2018-07-16T00:16:29.866Z,8.23
2018-07-16T00:18:58.521Z,7.23
2018-07-16T00:21:27.465Z,7.43
2018-07-16T00:23:55.982Z,7.50
2018-07-16T00:26:24.589Z,7.60
2018-07-16T00:28:53.110Z,8.23
2018-07-16T00:31:21.578Z,8.83
2018-07-16T00:33:50.105Z,9.80
2018-07-16T00:36:18.590Z,8.27
2018-07-16T00:38:47.098Z,8.63
2018-07-16T00:41:15.613Z,8.00
2018-07-16T00:43:44.119Z,8.93
2018-07-16T00:46:12.603Z,9.07
2018-07-16T00:48:41.106Z,9.13
2018-07-16T00:51:09.606Z,8.87
2018-07-16T00:53:38.260Z,8.47
2018-07-16T00:56:07.217Z,8.93
2018-07-16T00:58:35.696Z,9.53
2018-07-16T01:01:04.172Z,9.63
2018-07-16T01:03:32.649Z,10.13
2018-07-16T01:06:01.148Z,9.37
2018-07-16T01:08:30.215Z,10.30
2018-07-16T01:10:58.743Z,9.47
2018-07-16T01:13:27.220Z,11.10
2018-07-16T01:15:55.750Z,10.30
2018-07-16T01:18:24.340Z,9.90
2018-07-16T01:20:52.837Z,9.77
2018-07-16T01:23:21.351Z,10.70
2018-07-16T01:25:49.936Z,10.10
2018-07-16T01:28:18.417Z,11.33
2018-07-16T01:30:47.034Z,10.57
2018-07-16T01:33:15.869Z,9.47
2018-07-16T01:35:44.467Z,11.20
2018-07-16T01:38:12.944Z,10.50
2018-07-16T01:40:41.447Z,10.10
2018-07-16T01:43:10.013Z,11.00
2018-07-16T01:45:38.571Z,10.70
2018-07-16T01:48:07.208Z,11.10
2018-07-16T01:50:35.729Z,11.37
2018-07-16T01:53:04.234Z,10.00
2018-07-16T01:55:32.757Z,10.50
2018-07-16T01:58:01.338Z,11.13
2018-07-16T02:00:29.868Z,12.10
2018-07-16T02:02:58.345Z,10.67
2018-07-16T02:05:26.862Z,10.77
2018-07-16T02:07:55.352Z,11.97
2018-07-16T02:10:23.880Z,11.30
2018-07-16T02:12:53.066Z,12.20
2018-07-16T02:15:21.599Z,12.13
2018-07-16T02:17:50.079Z,11.57
2018-07-16T02:20:18.574Z,12.13
2018-07-16T02:22:47.057Z,13.07
2018-07-16T02:25:15.524Z,13.23
2018-07-16T02:27:44.049Z,12.53
2018-07-16T02:30:12.569Z,12.80
2018-07-16T02:32:41.018Z,12.60
2018-07-16T02:35:09.524Z,12.60
2018-07-16T02:37:38.101Z,14.03
2018-07-16T02:40:06.737Z,12.60
2018-07-16T02:42:35.220Z,13.10
2018-07-16T02:45:03.686Z,13.87
2018-07-16T02:47:32.194Z,12.73
2018-07-16T02:50:00.817Z,13.73
2018-07-16T02:52:29.657Z,13.50
2018-07-16T02:54:58.114Z,13.10
2018-07-16T02:57:26.822Z,13.60
2018-07-16T02:59:55.299Z,13.10
2018-07-16T03:02:23.841Z,13.87
2018-07-16T03:04:52.459Z,13.93
2018-07-16T03:07:20.976Z,14.07
2018-07-16T03:09:49.535Z,15.37
2018-07-16T03:12:18.064Z,13.73
2018-07-16T03:14:46.558Z,13.30
2018-07-16T03:17:15.560Z,14.67
2018-07-16T03:19:44.115Z,14.60
2018-07-16T03:22:12.619Z,13.83
2018-07-16T03:24:41.133Z,15.50
2018-07-16T03:27:10.142Z,14.77
2018-07-16T03:29:38.683Z,15.00
2018-07-16T03:32:07.311Z,15.50
2018-07-16T03:34:35.853Z,15.43
2018-07-16T03:37:04.358Z,16.07
2018-07-16T03:39:32.856Z,15.13
2018-07-16T03:42:01.576Z,15.60
2018-07-16T03:44:30.289Z,17.77
2018-07-16T03:46:59.507Z,15.50
2018-07-16T03:49:28.048Z,15.00
2018-07-16T03:51:56.586Z,15.23
2018-07-16T03:54:25.463Z,16.80
2018-07-16T03:56:53.989Z,15.30
2018-07-16T03:59:22.609Z,16.33
2018-07-16T04:01:51.252Z,15.23
2018-07-16T04:04:19.776Z,15.60
2018-07-16T04:06:48.263Z,16.90
2018-07-16T04:09:16.958Z,16.53
2018-07-16T04:11:45.562Z,14.50
2018-07-16T04:14:14.117Z,16.00
2018-07-16T04:16:42.751Z,16.30
2018-07-16T04:19:11.278Z,14.57
2018-07-16T04:21:39.952Z,15.50
2018-07-16T04:24:08.631Z,13.53
2018-07-16T04:26:37.238Z,17.40
2018-07-16T04:29:05.907Z,17.23
2018-07-16T04:31:34.494Z,16.80
2018-07-16T04:34:03.024Z,16.03
2018-07-16T04:36:31.654Z,15.50
2018-07-16T04:39:00.330Z,16.63
2018-07-16T04:41:28.862Z,16.70
2018-07-16T04:43:58.273Z,15.13
2018-07-16T04:46:26.798Z,14.77
2018-07-16T04:48:55.298Z,15.10
2018-07-16T04:51:23.904Z,15.10
2018-07-16T04:53:52.468Z,15.07
2018-07-16T04:56:21.063Z,15.17
2018-07-16T04:58:49.578Z,15.17
2018-07-16T05:01:18.057Z,15.83
2018-07-16T05:03:46.663Z,14.67
2018-07-16T05:06:15.211Z,13.87
2018-07-16T05:08:43.784Z,12.87
2018-07-16T05:11:12.297Z,11.43
2018-07-16T05:13:40.901Z,11.00
2018-07-16T05:16:09.469Z,12.50
2018-07-16T05:18:38.330Z,11.20
2018-07-16T05:21:06.877Z,10.80
2018-07-16T05:23:36.386Z,10.30
2018-07-16T05:26:05.007Z,10.80
2018-07-16T05:28:34.566Z,11.33
2018-07-16T05:31:03.093Z,11.00
2018-07-16T05:33:31.988Z,10.33
2018-07-16T05:36:00.494Z,10.53
2018-07-16T05:38:29.006Z,11.63
2018-07-16T05:40:57.518Z,11.00
2018-07-16T05:43:26.027Z,10.50
2018-07-16T05:45:54.576Z,11.27
2018-07-16T05:48:23.098Z,10.63
2018-07-16T05:50:51.736Z,12.17
2018-07-16T05:53:20.295Z,10.97
2018-07-16T05:55:48.790Z,11.03
2018-07-16T05:58:17.414Z,10.90
2018-07-16T06:00:46.878Z,11.37
2018-07-16T06:03:15.477Z,11.20
2018-07-16T06:05:44.092Z,11.30
2018-07-16T06:08:12.606Z,11.67
2018-07-16T06:10:41.155Z,11.80
2018-07-16T06:13:09.702Z,11.75
2018-07-16T06:15:38.199Z,10.45
2018-07-16T06:18:06.715Z,11.22
2018-07-16T06:20:35.310Z,11.53
2018-07-16T06:23:03.909Z,10.75
2018-07-16T06:25:32.461Z,11.80
2018-07-16T06:28:01.098Z,10.23
2018-07-16T06:30:29.779Z,10.75
2018-07-16T06:32:58.991Z,9.45
2018-07-16T06:35:27.502Z,9.10
2018-07-16T06:37:56.133Z,9.65
2018-07-16T06:40:24.881Z,9.38
2018-07-16T06:42:53.611Z,9.53
2018-07-16T06:45:22.149Z,9.75
2018-07-16T06:47:50.806Z,9.25
2018-07-16T06:50:19.346Z,8.30
2018-07-16T06:52:47.864Z,8.38
2018-07-16T06:55:16.453Z,8.03
2018-07-16T06:57:44.982Z,8.10
2018-07-16T07:00:13.516Z,7.73
2018-07-16T07:02:42.039Z,8.18
2018-07-16T07:05:10.674Z,8.78
2018-07-16T07:07:39.227Z,8.83
2018-07-16T07:10:07.779Z,7.95
2018-07-16T07:12:36.338Z,7.15
2018-07-16T07:15:04.890Z,6.70
2018-07-16T07:17:33.438Z,6.83
2018-07-16T07:20:02.287Z,7.73
2018-07-16T07:22:30.848Z,7.10
2018-07-16T07:24:59.527Z,7.50
2018-07-16T07:27:28.103Z,6.93
2018-07-16T07:29:56.664Z,9.20
2018-07-16T07:32:26.449Z,8.20
2018-07-16T07:34:55.127Z,7.13
2018-07-16T07:37:23.898Z,6.60
2018-07-16T07:39:52.462Z,8.03
2018-07-16T07:42:20.966Z,7.43
2018-07-16T07:44:49.550Z,6.53
2018-07-16T07:47:18.045Z,7.30
2018-07-16T07:49:46.708Z,7.17
2018-07-16T07:52:15.587Z,8.07
2018-07-16T07:54:44.301Z,6.20
2018-07-16T07:57:12.695Z,6.40
2018-07-16T07:59:41.235Z,5.50
2018-07-16T08:02:10.006Z,5.63
2018-07-16T08:04:38.902Z,5.03
2018-07-16T08:07:11.514Z,5.13
2018-07-16T08:09:41.479Z,5.00
2018-07-16T08:12:11.109Z,5.10
2018-07-16T08:14:40.110Z,5.37
2018-07-16T08:17:08.715Z,4.40
2018-07-16T08:19:37.253Z,4.73
2018-07-16T08:22:05.791Z,4.10
2018-07-16T08:24:34.341Z,4.10
2018-07-16T08:27:02.918Z,4.20
2018-07-16T08:29:31.574Z,3.53
2018-07-16T08:32:00.095Z,3.53
2018-07-16T08:34:29.119Z,2.90
2018-07-16T08:36:57.754Z,3.07
2018-07-16T08:39:26.343Z,2.33
2018-07-16T08:41:55.016Z,2.70
2018-07-16T08:44:23.523Z,2.60
2018-07-16T08:46:52.024Z,2.87
2018-07-16T08:49:20.667Z,3.00
2018-07-16T08:51:49.174Z,2.30
2018-07-16T08:54:17.901Z,2.40
2018-07-16T08:56:46.791Z,2.70
2018-07-16T08:59:15.466Z,2.67
2018-07-16T09:01:44.013Z,2.93
2018-07-16T09:04:12.687Z,3.03
2018-07-16T09:06:42.235Z,2.97
2018-07-16T09:09:10.777Z,2.77
2018-07-16T09:11:39.467Z,2.90
2018-07-16T09:14:08.040Z,2.80
2018-07-16T09:16:36.595Z,2.83
2018-07-16T09:19:05.100Z,2.50
2018-07-16T09:21:33.737Z,2.77
2018-07-16T09:24:02.262Z,2.97
2018-07-16T09:26:30.753Z,2.73
2018-07-16T09:28:59.344Z,3.23
2018-07-16T09:31:27.939Z,2.93
2018-07-16T09:33:56.401Z,3.77
2018-07-16T09:36:25.102Z,3.50
2018-07-16T09:38:53.639Z,3.13
2018-07-16T09:41:22.371Z,2.87
2018-07-16T09:43:50.890Z,3.83
2018-07-16T09:46:19.607Z,3.07
2018-07-16T09:48:48.096Z,3.00
2018-07-16T09:51:16.654Z,3.50
2018-07-16T09:53:45.158Z,3.63
2018-07-16T09:56:13.857Z,2.83
2018-07-16T09:58:42.357Z,2.90
2018-07-16T10:01:16.061Z,3.30
2018-07-16T10:03:44.637Z,2.73
2018-07-16T10:06:13.191Z,3.30
2018-07-16T10:08:41.768Z,3.37
2018-07-16T10:11:10.339Z,3.00
2018-07-16T10:13:38.880Z,3.27
2018-07-16T10:16:07.522Z,3.77
2018-07-16T10:18:36.030Z,3.50
2018-07-16T10:21:04.558Z,3.60
2018-07-16T10:23:33.116Z,3.10
2018-07-16T10:26:01.695Z,2.83
2018-07-16T10:28:30.239Z,2.70
2018-07-16T10:30:58.758Z,3.27
2018-07-16T10:33:27.294Z,3.07
2018-07-16T10:35:55.939Z,3.40
2018-07-16T10:38:24.564Z,3.73
2018-07-16T10:40:53.063Z,2.97
2018-07-16T10:43:22.159Z,2.67
2018-07-16T10:45:51.038Z,3.00
2018-07-16T10:48:19.618Z,3.10
2018-07-16T10:50:48.195Z,3.10
2018-07-16T10:53:16.707Z,2.97
2018-07-16T10:55:45.790Z,3.47
2018-07-16T10:58:14.286Z,3.10
2018-07-16T11:00:42.839Z,3.00
2018-07-16T11:03:11.653Z,4.20
2018-07-16T11:05:40.270Z,4.13
2018-07-16T11:08:08.866Z,3.77
2018-07-16T11:10:37.354Z,3.50
2018-07-16T11:13:05.954Z,3.60
2018-07-16T11:15:34.510Z,3.53
2018-07-16T11:18:03.060Z,2.70
2018-07-16T11:20:31.638Z,3.23
2018-07-16T11:23:00.230Z,3.30
2018-07-16T11:25:28.760Z,3.07
2018-07-16T11:27:57.302Z,2.63
2018-07-16T11:30:25.824Z,3.33
2018-07-16T11:32:54.345Z,2.67
2018-07-16T11:35:22.872Z,2.93
2018-07-16T11:37:51.778Z,3.13
2018-07-16T11:40:20.280Z,3.30
2018-07-16T11:42:49.497Z,3.40
2018-07-16T11:45:18.071Z,3.23
2018-07-16T11:47:46.561Z,2.83
2018-07-16T11:50:15.138Z,2.80
2018-07-16T11:52:43.640Z,2.97
2018-07-16T11:55:12.202Z,2.90
2018-07-16T11:57:40.764Z,2.87
2018-07-16T12:00:09.339Z,2.80
2018-07-16T12:02:37.895Z,3.00
2018-07-16T12:05:06.408Z,3.07
2018-07-16T12:07:34.926Z,3.83
2018-07-16T12:10:03.717Z,3.53
2018-07-16T12:12:32.298Z,2.60
2018-07-16T12:15:00.814Z,2.90
2018-07-16T12:17:29.513Z,2.93
2018-07-16T12:19:58.034Z,3.60
2018-07-16T12:22:26.554Z,3.23
2018-07-16T12:24:55.115Z,3.50
2018-07-16T12:27:23.682Z,3.57
2018-07-16T12:29:52.495Z,3.40
2018-07-16T12:32:21.054Z,3.23
2018-07-16T12:34:49.641Z,3.20
2018-07-16T12:37:18.135Z,2.80
2018-07-16T12:39:46.744Z,3.00
2018-07-16T12:42:15.479Z,3.00
2018-07-16T12:44:43.958Z,3.10
2018-07-16T12:47:12.512Z,2.70
2018-07-16T12:49:41.532Z,3.60
2018-07-16T12:52:10.188Z,2.70
2018-07-16T12:54:38.707Z,3.40
2018-07-16T12:57:07.322Z,2.47
2018-07-16T12:59:35.804Z,3.20
2018-07-16T13:02:04.365Z,2.77
2018-07-16T13:04:32.950Z,2.63
2018-07-16T13:07:01.435Z,3.03
2018-07-16T13:09:29.969Z,3.30
2018-07-16T13:11:58.536Z,2.70
2018-07-16T13:14:27.106Z,2.87
2018-07-16T13:16:55.647Z,2.87
2018-07-16T13:19:24.218Z,2.47
2018-07-16T13:21:52.768Z,2.80
2018-07-16T13:24:21.271Z,2.70
2018-07-16T13:26:49.875Z,2.63
2018-07-16T13:29:18.375Z,2.70
2018-07-16T13:31:46.890Z,2.90
2018-07-16T13:34:15.434Z,3.10
2018-07-16T13:36:43.931Z,2.20
2018-07-16T13:39:12.628Z,2.63
2018-07-16T13:41:41.190Z,2.70
2018-07-16T13:44:09.830Z,1.90
2018-07-16T13:46:38.403Z,2.77
2018-07-16T13:49:06.906Z,2.03
2018-07-16T13:51:35.449Z,2.70
2018-07-16T13:54:03.941Z,2.70
2018-07-16T13:56:32.425Z,2.50
2018-07-16T13:59:00.979Z,2.33
2018-07-16T14:01:29.509Z,2.17
2018-07-16T14:03:58.130Z,2.23
2018-07-16T14:06:26.650Z,2.10
2018-07-16T14:08:55.212Z,2.00
2018-07-16T14:11:23.724Z,2.70
2018-07-16T14:13:52.237Z,2.60
2018-07-16T14:16:20.788Z,3.00
2018-07-16T14:18:49.329Z,2.10
2018-07-16T14:21:17.839Z,2.60
2018-07-16T14:23:46.354Z,2.60
2018-07-16T14:26:14.876Z,2.60
2018-07-16T14:28:43.467Z,2.30
2018-07-16T14:31:11.997Z,2.50
2018-07-16T14:33:40.536Z,2.13
2018-07-16T14:36:09.120Z,2.63
2018-07-16T14:38:37.649Z,2.00
2018-07-16T14:41:06.230Z,2.57
2018-07-16T14:43:34.777Z,2.20
2018-07-16T14:46:03.333Z,2.30
2018-07-16T14:48:31.838Z,2.37
2018-07-16T14:51:00.387Z,2.20
2018-07-16T14:53:28.914Z,2.57
2018-07-16T14:55:57.494Z,2.40
2018-07-16T14:58:26.018Z,2.33
2018-07-16T15:00:54.533Z,2.37
2018-07-16T15:03:23.300Z,2.60
2018-07-16T15:05:51.939Z,2.80
2018-07-16T15:08:21.565Z,3.17
2018-07-16T15:10:50.040Z,2.47
2018-07-16T15:13:18.610Z,2.40
2018-07-16T15:15:47.371Z,2.43
2018-07-16T15:18:15.962Z,2.33
2018-07-16T15:20:44.745Z,2.30
2018-07-16T15:23:13.023Z,2.60
2018-07-16T15:25:41.699Z,2.80
2018-07-16T15:28:11.194Z,2.53
2018-07-16T15:30:39.927Z,5.10
2018-07-16T15:33:08.529Z,2.73
2018-07-16T15:35:37.091Z,2.43
2018-07-16T15:38:05.944Z,1.93
2018-07-16T15:40:34.537Z,2.30
2018-07-16T15:43:03.070Z,1.93
2018-07-16T15:45:31.765Z,2.23
2018-07-16T15:48:00.292Z,2.47
2018-07-16T15:50:28.845Z,2.33
2018-07-16T15:52:57.418Z,2.60
2018-07-16T15:55:26.013Z,2.03
2018-07-16T15:57:54.551Z,2.70
2018-07-16T16:00:23.088Z,2.70
2018-07-16T16:02:51.663Z,1.90
2018-07-16T16:05:20.913Z,2.57
2018-07-16T16:07:49.520Z,2.87
2018-07-16T16:10:18.038Z,2.37
2018-07-16T16:12:46.571Z,2.10
2018-07-16T16:15:15.197Z,2.00
2018-07-16T16:17:43.790Z,2.20
2018-07-16T16:20:12.335Z,2.27
2018-07-16T16:22:40.891Z,2.70
2018-07-16T16:25:09.531Z,2.17
2018-07-16T16:27:38.032Z,2.20
2018-07-16T16:30:07.372Z,2.03
2018-07-16T16:32:36.017Z,2.13
2018-07-16T16:35:04.872Z,2.13
2018-07-16T16:37:33.531Z,2.20
2018-07-16T16:40:02.227Z,2.07
2018-07-16T16:42:30.745Z,2.03
2018-07-16T16:44:59.430Z,2.13
2018-07-16T16:47:27.936Z,2.00
2018-07-16T16:49:56.926Z,2.40
2018-07-16T16:52:25.434Z,2.27
2018-07-16T16:54:53.979Z,1.90
2018-07-16T16:57:22.523Z,2.50
2018-07-16T16:59:51.046Z,2.30
2018-07-16T17:02:19.600Z,2.23
2018-07-16T17:04:48.125Z,2.30
2018-07-16T17:07:16.619Z,2.00
2018-07-16T17:09:45.183Z,1.97
2018-07-16T17:12:13.699Z,2.47
2018-07-16T17:14:42.259Z,2.23
2018-07-16T17:17:10.914Z,2.57
2018-07-16T17:19:39.474Z,2.40
2018-07-16T17:22:08.064Z,1.80
2018-07-16T17:24:36.569Z,2.30
2018-07-16T17:27:05.578Z,2.73
2018-07-16T17:29:34.049Z,2.47
2018-07-16T17:32:02.587Z,2.43
2018-07-16T17:34:31.111Z,3.40
2018-07-16T17:36:59.725Z,2.03
2018-07-16T17:39:28.313Z,2.60
2018-07-16T17:41:56.798Z,2.80
2018-07-16T17:44:25.287Z,2.80
2018-07-16T17:46:53.840Z,2.40
2018-07-16T17:49:22.459Z,2.90
2018-07-16T17:51:51.356Z,2.90
2018-07-16T17:54:19.981Z,2.47
2018-07-16T17:56:48.567Z,3.00
2018-07-16T17:59:17.228Z,2.47
2018-07-16T18:01:45.799Z,2.20
2018-07-16T18:04:14.292Z,2.43
2018-07-16T18:06:43.354Z,2.27
2018-07-16T18:09:11.837Z,2.63
2018-07-16T18:11:40.338Z,2.63
2018-07-16T18:14:08.929Z,2.90
2018-07-16T18:16:37.448Z,2.70
2018-07-16T18:19:05.953Z,2.73
2018-07-16T18:21:34.498Z,2.57
2018-07-16T18:24:03.034Z,3.10
2018-07-16T18:26:31.583Z,3.15
2018-07-16T18:29:00.080Z,3.07
2018-07-16T18:31:28.610Z,2.83
2018-07-16T18:33:57.229Z,2.30
2018-07-16T18:36:25.793Z,3.03
2018-07-16T18:38:54.326Z,2.90
2018-07-16T18:41:22.802Z,2.60
2018-07-16T18:43:51.307Z,2.83
2018-07-16T18:46:19.860Z,2.77
2018-07-16T18:48:48.356Z,3.17
2018-07-16T18:51:16.878Z,2.60
2018-07-16T18:53:45.537Z,2.83
2018-07-16T18:56:14.041Z,2.87
2018-07-16T18:58:42.558Z,3.50
2018-07-16T19:01:11.697Z,2.70
2018-07-16T19:03:40.359Z,2.60
2018-07-16T19:06:08.818Z,3.50
2018-07-16T19:08:37.817Z,3.30
2018-07-16T19:11:06.437Z,3.13
2018-07-16T19:13:35.035Z,2.70
2018-07-16T19:16:03.671Z,3.00
2018-07-16T19:18:32.201Z,2.87
2018-07-16T19:21:00.741Z,2.90
2018-07-16T19:23:29.310Z,2.97
2018-07-16T19:25:57.812Z,2.73
2018-07-16T19:28:26.391Z,3.20
2018-07-16T19:30:55.039Z,2.53
2018-07-16T19:33:23.666Z,3.10
2018-07-16T19:35:52.205Z,2.80
2018-07-16T19:38:20.760Z,3.23
2018-07-16T19:40:49.306Z,2.80
2018-07-16T19:43:17.880Z,3.33
2018-07-16T19:45:46.474Z,3.37
2018-07-16T19:48:15.083Z,3.10
2018-07-16T19:50:43.726Z,3.03
2018-07-16T19:53:12.627Z,3.90
2018-07-16T19:55:41.150Z,3.23
2018-07-16T19:58:09.980Z,3.40
2018-07-16T20:00:38.467Z,3.00
2018-07-16T20:03:07.510Z,3.73
2018-07-16T20:05:36.564Z,2.63
2018-07-16T20:08:05.134Z,2.97
2018-07-16T20:10:34.282Z,4.20
2018-07-16T20:13:02.805Z,4.30
2018-07-16T20:15:31.392Z,3.27
2018-07-16T20:17:59.881Z,4.27
2018-07-16T20:20:28.385Z,3.93
2018-07-16T20:22:57.118Z,3.40
2018-07-16T20:25:25.645Z,3.30
2018-07-16T20:27:54.251Z,4.00
2018-07-16T20:30:23.113Z,3.50
2018-07-16T20:32:51.664Z,3.77
2018-07-16T20:35:20.266Z,4.53
2018-07-16T20:37:48.859Z,3.67
2018-07-16T20:40:17.583Z,3.73
2018-07-16T20:42:46.074Z,3.73
2018-07-16T20:45:15.245Z,3.97
2018-07-16T20:47:43.974Z,3.53
2018-07-16T20:50:12.710Z,3.37
2018-07-16T20:52:41.198Z,3.63
2018-07-16T20:55:09.709Z,3.80
2018-07-16T20:57:38.222Z,3.90
2018-07-16T21:00:06.782Z,3.80
2018-07-16T21:02:35.701Z,3.60
2018-07-16T21:05:04.293Z,3.50
2018-07-16T21:07:32.898Z,4.30
2018-07-16T21:10:01.475Z,3.63
2018-07-16T21:12:30.769Z,3.97
2018-07-16T21:14:59.334Z,3.97
2018-07-16T21:17:27.850Z,4.13
2018-07-16T21:19:56.343Z,4.27
2018-07-16T21:22:24.938Z,4.40
2018-07-16T21:24:53.474Z,4.60
2018-07-16T21:27:21.978Z,4.13
2018-07-16T21:29:50.518Z,4.07
2018-07-16T21:32:19.738Z,4.03
2018-07-16T21:34:48.398Z,3.90
2018-07-16T21:39:58.761Z,3.80
2018-07-16T21:42:27.418Z,4.70
2018-07-16T21:44:56.024Z,4.60
2018-07-16T21:47:24.810Z,5.07
2018-07-16T21:49:53.423Z,5.37
2018-07-16T21:52:22.177Z,4.33
2018-07-16T21:54:51.111Z,5.13
2018-07-16T21:57:19.605Z,5.00
2018-07-16T21:59:48.109Z,5.27
2018-07-16T22:02:16.695Z,4.63
2018-07-16T22:04:45.246Z,5.40
2018-07-16T22:07:14.136Z,4.70
2018-07-16T22:09:42.633Z,5.03
2018-07-16T22:12:11.159Z,5.50
2018-07-16T22:14:39.802Z,5.33
2018-07-16T22:17:08.326Z,5.50
2018-07-16T22:19:36.964Z,6.00
2018-07-16T22:22:05.514Z,4.97
2018-07-16T22:24:34.077Z,5.20
2018-07-16T22:27:02.647Z,6.30
2018-07-16T22:29:31.287Z,6.77
2018-07-16T22:31:59.870Z,6.43
2018-07-16T22:34:28.396Z,6.57
2018-07-16T22:36:56.882Z,6.07
2018-07-16T22:39:25.403Z,7.20
2018-07-16T22:41:53.990Z,6.40
2018-07-16T22:44:22.709Z,6.40
2018-07-16T22:46:51.287Z,5.73
2018-07-16T22:49:20.845Z,6.77
2018-07-16T22:51:49.718Z,6.07
2018-07-16T22:54:18.380Z,5.83
2018-07-16T22:56:46.919Z,6.67
2018-07-16T22:59:15.730Z,6.67
2018-07-16T23:01:44.213Z,6.37
2018-07-16T23:04:13.175Z,5.77
2018-07-16T23:06:41.681Z,6.63
2018-07-16T23:09:10.205Z,6.30
2018-07-16T23:11:38.779Z,6.13
2018-07-16T23:14:07.285Z,7.03
2018-07-16T23:16:35.761Z,6.90
2018-07-16T23:19:04.277Z,6.83
2018-07-16T23:21:32.805Z,7.50
2018-07-16T23:24:01.437Z,7.20
2018-07-16T23:26:29.984Z,7.67
2018-07-16T23:28:59.482Z,7.03
2018-07-16T23:31:27.930Z,7.70
2018-07-16T23:33:56.601Z,7.87
2018-07-16T23:36:25.167Z,8.13
2018-07-16T23:38:53.746Z,7.83
2018-07-16T23:41:22.236Z,8.00
2018-07-16T23:43:50.780Z,7.70
2018-07-16T23:46:20.198Z,8.20
2018-07-16T23:48:48.697Z,7.70
2018-07-16T23:51:17.230Z,7.60
2018-07-16T23:53:45.773Z,8.03
2018-07-16T23:56:14.334Z,8.57
2018-07-16T23:58:42.868Z,8.20
